OCN8NT EDDF-GCTS
Flight info
| Callsign | OCN8NT |
|---|---|
| Flight time | N/A |
| Altitude | 33000 |
| Route | SOBRA2L SOBRA Y180 DIK UN857 TOLVU DCT RAPOR DCT ESTOC DCT PON/N0454F350 UN872 ERIGA DCT FUJTI DCT ATLEN DCT ABUPI DCT DEKUS DCT BEXAL UN866 OSDIV/N0457F370 UN866 KONBA |
| Aircraft | A320/M-SDE2E3FGIJ1LORWXYZ/HB1 |
Departure
| Time | 2026-05-08 04:02 |
|---|---|
| Airport | Frankfurt Main Airport (EDDF) |
Arrival
| Time | N/A |
|---|---|
| Airport | Tenerife Sur Airport (GCTS) |
| Time | Latitude | Longitude | Altitude | Speed | Heading |
|---|---|---|---|---|---|
| 2026-05-08 03:09 | 50.04999 | 8.59216 | 362 ft | 0 kts | 160° |
| 2026-05-08 03:51 | 50.05016 | 8.59206 | 363 ft | 4 kts | 160° |
| 2026-05-08 03:51 | 50.05036 | 8.59194 | 364 ft | 4 kts | 141° |
| 2026-05-08 03:51 | 50.05046 | 8.59165 | 363 ft | 4 kts | 77° |
| 2026-05-08 03:52 | 50.05038 | 8.59128 | 364 ft | 4 kts | 70° |
| 2026-05-08 03:52 | 50.05035 | 8.59115 | 364 ft | 1 kts | 70° |
| 2026-05-08 03:54 | 50.05041 | 8.59141 | 364 ft | 7 kts | 70° |
| 2026-05-08 03:54 | 50.05044 | 8.59251 | 364 ft | 11 kts | 120° |
| 2026-05-08 03:54 | 50.04978 | 8.59310 | 365 ft | 14 kts | 158° |
| 2026-05-08 03:54 | 50.04888 | 8.59335 | 367 ft | 12 kts | 194° |
| 2026-05-08 03:55 | 50.04826 | 8.59189 | 370 ft | 21 kts | 251° |
| 2026-05-08 03:55 | 50.04777 | 8.58979 | 369 ft | 20 kts | 249° |
| 2026-05-08 03:55 | 50.04728 | 8.58776 | 371 ft | 20 kts | 248° |
| 2026-05-08 03:55 | 50.04677 | 8.58585 | 370 ft | 21 kts | 249° |
| 2026-05-08 03:56 | 50.04619 | 8.58340 | 369 ft | 25 kts | 250° |
| 2026-05-08 03:56 | 50.04555 | 8.58066 | 365 ft | 28 kts | 250° |
| 2026-05-08 03:56 | 50.04486 | 8.57783 | 364 ft | 28 kts | 249° |
| 2026-05-08 03:56 | 50.04416 | 8.57493 | 361 ft | 30 kts | 250° |
| 2026-05-08 03:57 | 50.04352 | 8.57217 | 362 ft | 27 kts | 250° |
| 2026-05-08 03:57 | 50.04285 | 8.56941 | 360 ft | 28 kts | 249° |
| 2026-05-08 03:57 | 50.04217 | 8.56654 | 360 ft | 29 kts | 250° |
| 2026-05-08 03:57 | 50.04155 | 8.56396 | 355 ft | 26 kts | 250° |
| 2026-05-08 03:58 | 50.04091 | 8.56132 | 357 ft | 27 kts | 250° |
| 2026-05-08 03:58 | 50.04025 | 8.55854 | 350 ft | 28 kts | 249° |
| 2026-05-08 03:58 | 50.03957 | 8.55569 | 351 ft | 27 kts | 250° |
| 2026-05-08 03:58 | 50.03891 | 8.55292 | 357 ft | 28 kts | 249° |
| 2026-05-08 03:59 | 50.03824 | 8.55009 | 353 ft | 28 kts | 249° |
| 2026-05-08 03:59 | 50.03755 | 8.54722 | 348 ft | 28 kts | 250° |
| 2026-05-08 03:59 | 50.03691 | 8.54455 | 350 ft | 27 kts | 249° |
| 2026-05-08 03:59 | 50.03624 | 8.54179 | 346 ft | 27 kts | 250° |
| 2026-05-08 04:00 | 50.03557 | 8.53896 | 338 ft | 28 kts | 250° |
| 2026-05-08 04:00 | 50.03493 | 8.53625 | 339 ft | 23 kts | 249° |
| 2026-05-08 04:00 | 50.03436 | 8.53390 | 338 ft | 23 kts | 249° |
| 2026-05-08 04:00 | 50.03378 | 8.53149 | 335 ft | 24 kts | 250° |
| 2026-05-08 04:01 | 50.03318 | 8.52894 | 330 ft | 26 kts | 250° |
| 2026-05-08 04:01 | 50.03247 | 8.52641 | 332 ft | 25 kts | 226° |
| 2026-05-08 04:01 | 50.03079 | 8.52595 | 335 ft | 26 kts | 180° |
| 2026-05-08 04:01 | 50.02818 | 8.52600 | 335 ft | 65 kts | 179° |
| 2026-05-08 04:02 | 50.02137 | 8.52608 | 335 ft | 128 kts | 180° |
| 2026-05-08 04:02 | 50.01076 | 8.52621 | 347 ft | 175 kts | 179° |
| 2026-05-08 04:02 | 49.99861 | 8.52658 | 967 ft | 174 kts | 177° |
| 2026-05-08 04:02 | 49.98651 | 8.52730 | 1723 ft | 176 kts | 176° |
| 2026-05-08 04:03 | 49.97380 | 8.52816 | 2059 ft | 193 kts | 176° |
| 2026-05-08 04:03 | 49.94425 | 8.53027 | 2709 ft | 227 kts | 176° |
| 2026-05-08 04:03 | 49.92840 | 8.53137 | 3420 ft | 229 kts | 177° |
| 2026-05-08 04:04 | 49.91239 | 8.53246 | 4106 ft | 232 kts | 178° |
| 2026-05-08 04:04 | 49.90170 | 8.53317 | 4568 ft | 233 kts | 178° |
| 2026-05-08 04:04 | 49.88537 | 8.53420 | 5247 ft | 237 kts | 179° |
| 2026-05-08 04:04 | 49.86866 | 8.53008 | 5580 ft | 256 kts | 205° |
| 2026-05-08 04:05 | 49.85467 | 8.51238 | 6077 ft | 266 kts | 237° |
| 2026-05-08 04:05 | 49.84840 | 8.48547 | 6778 ft | 269 kts | 267° |
| 2026-05-08 04:05 | 49.84859 | 8.45633 | 7505 ft | 272 kts | 272° |
| 2026-05-08 04:05 | 49.84920 | 8.42686 | 8247 ft | 275 kts | 272° |
| 2026-05-08 04:06 | 49.84986 | 8.39704 | 8988 ft | 279 kts | 272° |
| 2026-05-08 04:06 | 49.85051 | 8.36685 | 9723 ft | 282 kts | 272° |
| 2026-05-08 04:06 | 49.85115 | 8.33626 | 10345 ft | 290 kts | 272° |
| 2026-05-08 04:06 | 49.85184 | 8.30382 | 10511 ft | 312 kts | 272° |
| 2026-05-08 04:07 | 49.85255 | 8.26895 | 10649 ft | 334 kts | 271° |
| 2026-05-08 04:07 | 49.85325 | 8.23232 | 11081 ft | 344 kts | 271° |
| 2026-05-08 04:07 | 49.85392 | 8.19500 | 11683 ft | 348 kts | 271° |
| 2026-05-08 04:07 | 49.85459 | 8.15737 | 12335 ft | 351 kts | 271° |
| 2026-05-08 04:08 | 49.85527 | 8.11936 | 12997 ft | 353 kts | 271° |
| 2026-05-08 04:08 | 49.85593 | 8.08117 | 13651 ft | 356 kts | 271° |
| 2026-05-08 04:08 | 49.85657 | 8.04269 | 14259 ft | 358 kts | 271° |
| 2026-05-08 04:08 | 49.85608 | 8.00449 | 14808 ft | 361 kts | 267° |
| 2026-05-08 04:09 | 49.85459 | 7.96561 | 15381 ft | 363 kts | 266° |
| 2026-05-08 04:09 | 49.85271 | 7.92648 | 15936 ft | 365 kts | 265° |
| 2026-05-08 04:09 | 49.85062 | 7.88709 | 16482 ft | 368 kts | 265° |
| 2026-05-08 04:09 | 49.84845 | 7.84755 | 17031 ft | 370 kts | 265° |
| 2026-05-08 04:10 | 49.84630 | 7.80769 | 17560 ft | 372 kts | 265° |
| 2026-05-08 04:10 | 49.84419 | 7.76759 | 18090 ft | 375 kts | 265° |
| 2026-05-08 04:10 | 49.84221 | 7.72724 | 18585 ft | 377 kts | 265° |
| 2026-05-08 04:10 | 49.84033 | 7.68659 | 19033 ft | 379 kts | 266° |
| 2026-05-08 04:11 | 49.83852 | 7.64578 | 19477 ft | 381 kts | 266° |
| 2026-05-08 04:11 | 49.83671 | 7.60461 | 19915 ft | 383 kts | 266° |
| 2026-05-08 04:11 | 49.83484 | 7.56324 | 20357 ft | 386 kts | 265° |
| 2026-05-08 04:11 | 49.83289 | 7.52169 | 20785 ft | 388 kts | 265° |
| 2026-05-08 04:12 | 49.83090 | 7.47990 | 21215 ft | 390 kts | 265° |
| 2026-05-08 04:12 | 49.82887 | 7.43791 | 21624 ft | 392 kts | 265° |
| 2026-05-08 04:12 | 49.82684 | 7.39621 | 22031 ft | 394 kts | 265° |
| 2026-05-08 04:12 | 49.82477 | 7.35374 | 22441 ft | 396 kts | 265° |
| 2026-05-08 04:13 | 49.82265 | 7.31108 | 22851 ft | 398 kts | 265° |
| 2026-05-08 04:13 | 49.82048 | 7.26818 | 23251 ft | 400 kts | 265° |
| 2026-05-08 04:13 | 49.81826 | 7.22503 | 23643 ft | 402 kts | 265° |
| 2026-05-08 04:13 | 49.81602 | 7.18173 | 23976 ft | 404 kts | 265° |
| 2026-05-08 04:14 | 49.81360 | 7.13827 | 24304 ft | 406 kts | 264° |
| 2026-05-08 04:14 | 49.81014 | 7.09476 | 24629 ft | 408 kts | 262° |
| 2026-05-08 04:14 | 49.80578 | 7.05132 | 24937 ft | 409 kts | 260° |
| 2026-05-08 04:14 | 49.80090 | 7.00781 | 25252 ft | 411 kts | 260° |
| 2026-05-08 04:15 | 49.79584 | 6.96419 | 25559 ft | 413 kts | 260° |
| 2026-05-08 04:15 | 49.79083 | 6.92029 | 25867 ft | 414 kts | 260° |
| 2026-05-08 04:15 | 49.78616 | 6.87683 | 26167 ft | 416 kts | 261° |
| 2026-05-08 04:15 | 49.78166 | 6.83254 | 26468 ft | 417 kts | 261° |
| 2026-05-08 04:16 | 49.77726 | 6.78807 | 26770 ft | 419 kts | 261° |
| 2026-05-08 04:16 | 49.77286 | 6.74339 | 27065 ft | 421 kts | 261° |
| 2026-05-08 04:16 | 49.76843 | 6.69864 | 27373 ft | 422 kts | 261° |
| 2026-05-08 04:16 | 49.76390 | 6.65366 | 27644 ft | 424 kts | 261° |
| 2026-05-08 04:17 | 49.75925 | 6.60853 | 27912 ft | 425 kts | 261° |
| 2026-05-08 04:17 | 49.75455 | 6.56331 | 28172 ft | 427 kts | 261° |
| 2026-05-08 04:17 | 49.74984 | 6.51796 | 28431 ft | 428 kts | 261° |
| 2026-05-08 04:17 | 49.74514 | 6.47240 | 28681 ft | 430 kts | 261° |
| 2026-05-08 04:18 | 49.74042 | 6.42668 | 28924 ft | 431 kts | 261° |
| 2026-05-08 04:18 | 49.73565 | 6.38077 | 29167 ft | 433 kts | 261° |
| 2026-05-08 04:18 | 49.73084 | 6.33481 | 29412 ft | 434 kts | 261° |
| 2026-05-08 04:18 | 49.72598 | 6.28865 | 29649 ft | 436 kts | 260° |
| 2026-05-08 04:19 | 49.72108 | 6.24248 | 29980 ft | 435 kts | 260° |
| 2026-05-08 04:19 | 49.71613 | 6.19642 | 30296 ft | 434 kts | 260° |
| 2026-05-08 04:19 | 49.71120 | 6.15048 | 30584 ft | 433 kts | 260° |
| 2026-05-08 04:19 | 49.70629 | 6.10464 | 30881 ft | 432 kts | 260° |
| 2026-05-08 04:20 | 49.70140 | 6.05897 | 31167 ft | 431 kts | 260° |
| 2026-05-08 04:20 | 49.69652 | 6.01337 | 31460 ft | 430 kts | 260° |
| 2026-05-08 04:20 | 49.69163 | 5.96788 | 31752 ft | 429 kts | 260° |
| 2026-05-08 04:20 | 49.68671 | 5.92247 | 32040 ft | 428 kts | 260° |
| 2026-05-08 04:21 | 49.68184 | 5.87781 | 32323 ft | 427 kts | 260° |
| 2026-05-08 04:21 | 49.67690 | 5.83268 | 32616 ft | 426 kts | 259° |
| 2026-05-08 04:21 | 49.67126 | 5.78785 | 32886 ft | 425 kts | 257° |
| 2026-05-08 04:21 | 49.66439 | 5.74350 | 33163 ft | 424 kts | 255° |
| 2026-05-08 04:22 | 49.65675 | 5.69958 | 33444 ft | 423 kts | 254° |
| 2026-05-08 04:22 | 49.64878 | 5.65600 | 33719 ft | 422 kts | 253° |
| 2026-05-08 04:22 | 49.64081 | 5.61248 | 33997 ft | 421 kts | 254° |
| 2026-05-08 04:22 | 49.63299 | 5.56895 | 34237 ft | 420 kts | 254° |
| 2026-05-08 04:23 | 49.62538 | 5.52543 | 34451 ft | 420 kts | 255° |
| 2026-05-08 04:23 | 49.61791 | 5.48184 | 34639 ft | 421 kts | 255° |
| 2026-05-08 04:23 | 49.61050 | 5.43819 | 34809 ft | 421 kts | 255° |
| 2026-05-08 04:23 | 49.60311 | 5.39448 | 34981 ft | 421 kts | 255° |
| 2026-05-08 04:24 | 49.58837 | 5.30695 | 35081 ft | 422 kts | 255° |
| 2026-05-08 04:24 | 49.57367 | 5.21936 | 35078 ft | 421 kts | 254° |
| 2026-05-08 04:25 | 49.55893 | 5.13255 | 35074 ft | 421 kts | 254° |
| 2026-05-08 04:25 | 49.54394 | 5.04534 | 35074 ft | 421 kts | 254° |
| 2026-05-08 04:26 | 49.52895 | 4.95813 | 35075 ft | 421 kts | 254° |
| 2026-05-08 04:26 | 49.51393 | 4.87092 | 35085 ft | 421 kts | 254° |
| 2026-05-08 04:27 | 49.49889 | 4.78380 | 35071 ft | 421 kts | 254° |
| 2026-05-08 04:27 | 49.48375 | 4.69675 | 35068 ft | 421 kts | 254° |
| 2026-05-08 04:28 | 49.46846 | 4.60979 | 35066 ft | 421 kts | 253° |
| 2026-05-08 04:28 | 49.45306 | 4.52292 | 35065 ft | 421 kts | 253° |
| 2026-05-08 04:29 | 49.43764 | 4.43608 | 35054 ft | 421 kts | 253° |
| 2026-05-08 04:29 | 49.42229 | 4.34924 | 35055 ft | 421 kts | 253° |
| 2026-05-08 04:30 | 49.40690 | 4.26294 | 35058 ft | 421 kts | 253° |
| 2026-05-08 04:30 | 49.39131 | 4.17633 | 35059 ft | 421 kts | 253° |
| 2026-05-08 04:31 | 49.37565 | 4.08974 | 35057 ft | 421 kts | 253° |
| 2026-05-08 04:31 | 49.35997 | 4.00318 | 35057 ft | 421 kts | 253° |
| 2026-05-08 04:32 | 49.34421 | 3.91661 | 35057 ft | 421 kts | 253° |
| 2026-05-08 04:32 | 49.32832 | 3.83021 | 35057 ft | 421 kts | 253° |
| 2026-05-08 04:33 | 49.31256 | 3.74434 | 35054 ft | 421 kts | 253° |
| 2026-05-08 04:33 | 49.29661 | 3.65802 | 35054 ft | 421 kts | 253° |
| 2026-05-08 04:34 | 49.28052 | 3.57177 | 35054 ft | 421 kts | 252° |
| 2026-05-08 04:34 | 49.26442 | 3.48564 | 35062 ft | 421 kts | 252° |
| 2026-05-08 04:35 | 49.24835 | 3.39946 | 35048 ft | 421 kts | 252° |
| 2026-05-08 04:35 | 49.23219 | 3.31339 | 35048 ft | 421 kts | 252° |
| 2026-05-08 04:36 | 49.21588 | 3.22735 | 35050 ft | 421 kts | 252° |
| 2026-05-08 04:36 | 49.19947 | 3.14130 | 35051 ft | 421 kts | 252° |
| 2026-05-08 04:37 | 49.18307 | 3.05528 | 35062 ft | 421 kts | 252° |
| 2026-05-08 04:37 | 49.16660 | 2.96931 | 35056 ft | 422 kts | 252° |
| 2026-05-08 04:38 | 49.15007 | 2.88338 | 35052 ft | 422 kts | 252° |
| 2026-05-08 04:38 | 49.13354 | 2.79746 | 35048 ft | 422 kts | 252° |
| 2026-05-08 04:39 | 49.11689 | 2.71161 | 35047 ft | 422 kts | 252° |
| 2026-05-08 04:39 | 49.10009 | 2.62576 | 35062 ft | 422 kts | 252° |
| 2026-05-08 04:40 | 49.08329 | 2.54064 | 35051 ft | 422 kts | 252° |
| 2026-05-08 04:40 | 49.06635 | 2.45477 | 35047 ft | 423 kts | 252° |
| 2026-05-08 04:41 | 49.04939 | 2.36891 | 35060 ft | 423 kts | 252° |
| 2026-05-08 04:41 | 49.03235 | 2.28304 | 35061 ft | 423 kts | 252° |
| 2026-05-08 04:42 | 49.01516 | 2.19706 | 35051 ft | 424 kts | 252° |
| 2026-05-08 04:42 | 48.99788 | 2.11111 | 35043 ft | 424 kts | 252° |
| 2026-05-08 04:43 | 48.98059 | 2.02508 | 35043 ft | 425 kts | 252° |
| 2026-05-08 04:43 | 48.96339 | 1.93969 | 35043 ft | 425 kts | 252° |
| 2026-05-08 04:44 | 48.94593 | 1.85375 | 35044 ft | 425 kts | 252° |
| 2026-05-08 04:44 | 48.92838 | 1.76784 | 35045 ft | 425 kts | 252° |
| 2026-05-08 04:45 | 48.91071 | 1.68196 | 35048 ft | 425 kts | 253° |
| 2026-05-08 04:45 | 48.89301 | 1.59601 | 35047 ft | 426 kts | 253° |
| 2026-05-08 04:46 | 48.87532 | 1.51017 | 35047 ft | 426 kts | 252° |
| 2026-05-08 04:46 | 48.85753 | 1.42435 | 35048 ft | 426 kts | 252° |
| 2026-05-08 04:47 | 48.83968 | 1.33864 | 35048 ft | 426 kts | 252° |
| 2026-05-08 04:47 | 48.82189 | 1.25359 | 35058 ft | 425 kts | 252° |
| 2026-05-08 04:48 | 48.80389 | 1.16820 | 35057 ft | 425 kts | 252° |
| 2026-05-08 04:48 | 48.78589 | 1.08288 | 35057 ft | 425 kts | 252° |
| 2026-05-08 04:49 | 48.76780 | 0.99764 | 35053 ft | 424 kts | 252° |
| 2026-05-08 04:49 | 48.74962 | 0.91254 | 35050 ft | 424 kts | 250° |
| 2026-05-08 04:50 | 48.72231 | 0.83357 | 35048 ft | 424 kts | 239° |
| 2026-05-08 04:50 | 48.69139 | 0.75750 | 35048 ft | 424 kts | 239° |
| 2026-05-08 04:51 | 48.66078 | 0.68186 | 35046 ft | 424 kts | 239° |
| 2026-05-08 04:51 | 48.62995 | 0.60591 | 35027 ft | 424 kts | 239° |
| 2026-05-08 04:52 | 48.59894 | 0.52987 | 35030 ft | 424 kts | 239° |
| 2026-05-08 04:52 | 48.56795 | 0.45419 | 35029 ft | 424 kts | 239° |
| 2026-05-08 04:53 | 48.53694 | 0.37857 | 35036 ft | 423 kts | 239° |
| 2026-05-08 04:53 | 48.51113 | 0.31588 | 35036 ft | 423 kts | 239° |
| 2026-05-08 04:54 | 48.48000 | 0.24061 | 35034 ft | 423 kts | 239° |
| 2026-05-08 04:54 | 48.44889 | 0.16546 | 35029 ft | 422 kts | 239° |
| 2026-05-08 04:55 | 48.41779 | 0.09040 | 35014 ft | 422 kts | 239° |
| 2026-05-08 04:55 | 48.38659 | 0.01546 | 35016 ft | 422 kts | 239° |
| 2026-05-08 04:56 | 48.35509 | -0.05919 | 35014 ft | 423 kts | 238° |
| 2026-05-08 04:56 | 48.32057 | -0.13104 | 35015 ft | 424 kts | 235° |
| 2026-05-08 04:57 | 48.28473 | -0.20075 | 35014 ft | 424 kts | 234° |
| 2026-05-08 04:57 | 48.24890 | -0.27113 | 35014 ft | 424 kts | 235° |
| 2026-05-08 04:58 | 48.21308 | -0.34151 | 34992 ft | 424 kts | 235° |
| 2026-05-08 04:58 | 48.17707 | -0.41195 | 34994 ft | 425 kts | 235° |
| 2026-05-08 04:59 | 48.14132 | -0.48178 | 34993 ft | 425 kts | 235° |
| 2026-05-08 04:59 | 48.10534 | -0.55195 | 34990 ft | 425 kts | 235° |
| 2026-05-08 05:00 | 48.06927 | -0.62199 | 34987 ft | 425 kts | 235° |
| 2026-05-08 05:00 | 48.03313 | -0.69189 | 34989 ft | 425 kts | 235° |
| 2026-05-08 05:01 | 47.99693 | -0.76174 | 34979 ft | 425 kts | 235° |
| 2026-05-08 05:01 | 47.96062 | -0.83152 | 34982 ft | 425 kts | 235° |
| 2026-05-08 05:02 | 47.92435 | -0.90131 | 34988 ft | 426 kts | 236° |
| 2026-05-08 05:02 | 47.88798 | -0.97097 | 34998 ft | 426 kts | 236° |
| 2026-05-08 05:03 | 47.85157 | -1.04060 | 34987 ft | 426 kts | 236° |
| 2026-05-08 05:03 | 47.81533 | -1.10983 | 34988 ft | 426 kts | 236° |
| 2026-05-08 05:04 | 47.77877 | -1.17941 | 34963 ft | 426 kts | 236° |
| 2026-05-08 05:04 | 47.74224 | -1.24887 | 34970 ft | 427 kts | 236° |
| 2026-05-08 05:05 | 47.70560 | -1.31825 | 34971 ft | 427 kts | 237° |
| 2026-05-08 05:05 | 47.66889 | -1.38750 | 34980 ft | 427 kts | 236° |
| 2026-05-08 05:06 | 47.63233 | -1.45615 | 34978 ft | 426 kts | 236° |
| 2026-05-08 05:06 | 47.59546 | -1.52505 | 34974 ft | 427 kts | 235° |
| 2026-05-08 05:07 | 47.55640 | -1.59160 | 34968 ft | 429 kts | 233° |
| 2026-05-08 05:07 | 47.51593 | -1.65650 | 34966 ft | 429 kts | 232° |
| 2026-05-08 05:08 | 47.47556 | -1.72152 | 34968 ft | 428 kts | 233° |
| 2026-05-08 05:08 | 47.43565 | -1.78681 | 34970 ft | 427 kts | 233° |
| 2026-05-08 05:09 | 47.39588 | -1.85204 | 34973 ft | 427 kts | 233° |
| 2026-05-08 05:09 | 47.35559 | -1.91651 | 34951 ft | 430 kts | 228° |
| 2026-05-08 05:10 | 47.27991 | -1.99085 | 34960 ft | 438 kts | 217° |
| 2026-05-08 05:11 | 47.22769 | -2.03728 | 34960 ft | 438 kts | 217° |
| 2026-05-08 05:11 | 47.17585 | -2.08356 | 34960 ft | 438 kts | 217° |
| 2026-05-08 05:12 | 47.12380 | -2.12996 | 34954 ft | 437 kts | 217° |
| 2026-05-08 05:12 | 47.07180 | -2.17614 | 34955 ft | 436 kts | 217° |
| 2026-05-08 05:13 | 47.01975 | -2.22223 | 34954 ft | 436 kts | 217° |
| 2026-05-08 05:13 | 46.96772 | -2.26816 | 34955 ft | 436 kts | 217° |
| 2026-05-08 05:14 | 46.91580 | -2.31393 | 34942 ft | 435 kts | 217° |
| 2026-05-08 05:14 | 46.86423 | -2.35920 | 34948 ft | 435 kts | 217° |
| 2026-05-08 05:15 | 46.81237 | -2.40476 | 34948 ft | 435 kts | 217° |
| 2026-05-08 05:15 | 46.76047 | -2.45032 | 34943 ft | 435 kts | 217° |
| 2026-05-08 05:16 | 46.70867 | -2.49567 | 34961 ft | 434 kts | 217° |
| 2026-05-08 05:16 | 46.65687 | -2.54094 | 34961 ft | 433 kts | 217° |
| 2026-05-08 05:17 | 46.60512 | -2.58605 | 34963 ft | 433 kts | 216° |
| 2026-05-08 05:17 | 46.55381 | -2.63064 | 34960 ft | 433 kts | 216° |
| 2026-05-08 05:18 | 46.50212 | -2.67538 | 34939 ft | 432 kts | 216° |
| 2026-05-08 05:18 | 46.45044 | -2.72006 | 34942 ft | 432 kts | 216° |
| 2026-05-08 05:19 | 46.39879 | -2.76467 | 34942 ft | 432 kts | 216° |
| 2026-05-08 05:19 | 46.34715 | -2.80915 | 34939 ft | 432 kts | 216° |
| 2026-05-08 05:20 | 46.29556 | -2.85354 | 34936 ft | 431 kts | 216° |
| 2026-05-08 05:20 | 46.24674 | -2.90243 | 34937 ft | 424 kts | 225° |
| 2026-05-08 05:21 | 46.20184 | -2.95751 | 34936 ft | 423 kts | 225° |
| 2026-05-08 05:21 | 46.15722 | -3.01208 | 34935 ft | 423 kts | 225° |
| 2026-05-08 05:22 | 46.11228 | -3.06686 | 34912 ft | 423 kts | 224° |
| 2026-05-08 05:22 | 46.06726 | -3.12138 | 34920 ft | 423 kts | 224° |
| 2026-05-08 05:23 | 46.02189 | -3.17620 | 34917 ft | 423 kts | 224° |
| 2026-05-08 05:23 | 45.97716 | -3.23017 | 34928 ft | 422 kts | 224° |
| 2026-05-08 05:24 | 45.93224 | -3.28448 | 34929 ft | 421 kts | 224° |
| 2026-05-08 05:24 | 45.88739 | -3.33852 | 34920 ft | 421 kts | 224° |
| 2026-05-08 05:25 | 45.84259 | -3.39245 | 34921 ft | 420 kts | 224° |
| 2026-05-08 05:25 | 45.79776 | -3.44626 | 34915 ft | 420 kts | 224° |
| 2026-05-08 05:26 | 45.75291 | -3.49998 | 34911 ft | 420 kts | 224° |
| 2026-05-08 05:26 | 45.70832 | -3.55312 | 34895 ft | 420 kts | 223° |
| 2026-05-08 05:27 | 45.66347 | -3.60641 | 34900 ft | 419 kts | 223° |
| 2026-05-08 05:27 | 45.61862 | -3.65978 | 34901 ft | 419 kts | 223° |
| 2026-05-08 05:28 | 45.57385 | -3.71295 | 34898 ft | 418 kts | 223° |
| 2026-05-08 05:28 | 45.52907 | -3.76595 | 34895 ft | 418 kts | 223° |
| 2026-05-08 05:29 | 45.48423 | -3.81884 | 34890 ft | 418 kts | 222° |
| 2026-05-08 05:29 | 45.43938 | -3.87164 | 34887 ft | 418 kts | 222° |
| 2026-05-08 05:30 | 45.39449 | -3.92440 | 34888 ft | 418 kts | 222° |
| 2026-05-08 05:30 | 45.34965 | -3.97708 | 34889 ft | 418 kts | 222° |
| 2026-05-08 05:31 | 45.30481 | -4.02965 | 34871 ft | 418 kts | 221° |
| 2026-05-08 05:31 | 45.26022 | -4.08173 | 34875 ft | 418 kts | 221° |
| 2026-05-08 05:32 | 45.21524 | -4.13409 | 34875 ft | 418 kts | 221° |
| 2026-05-08 05:32 | 45.17035 | -4.18646 | 34875 ft | 418 kts | 221° |
| 2026-05-08 05:33 | 45.12536 | -4.23869 | 34877 ft | 418 kts | 221° |
| 2026-05-08 05:33 | 45.08038 | -4.29083 | 34865 ft | 418 kts | 221° |
| 2026-05-08 05:34 | 45.03530 | -4.34281 | 34866 ft | 418 kts | 221° |
| 2026-05-08 05:34 | 44.99018 | -4.39483 | 34870 ft | 418 kts | 221° |
| 2026-05-08 05:35 | 44.94545 | -4.44645 | 34872 ft | 418 kts | 221° |
| 2026-05-08 05:35 | 44.90028 | -4.49842 | 34853 ft | 418 kts | 221° |
| 2026-05-08 05:36 | 44.85509 | -4.55011 | 34858 ft | 418 kts | 221° |
| 2026-05-08 05:36 | 44.80990 | -4.60167 | 34871 ft | 418 kts | 220° |
| 2026-05-08 05:37 | 44.76472 | -4.65323 | 34867 ft | 417 kts | 220° |
| 2026-05-08 05:37 | 44.71962 | -4.70469 | 34870 ft | 417 kts | 220° |
| 2026-05-08 05:38 | 44.67450 | -4.75607 | 34861 ft | 417 kts | 220° |
| 2026-05-08 05:38 | 44.62961 | -4.80687 | 34860 ft | 417 kts | 220° |
| 2026-05-08 05:39 | 44.58452 | -4.85799 | 34858 ft | 417 kts | 220° |
| 2026-05-08 05:39 | 44.53935 | -4.90909 | 34855 ft | 417 kts | 220° |
| 2026-05-08 05:40 | 44.49316 | -4.95819 | 34856 ft | 418 kts | 213° |
| 2026-05-08 05:40 | 44.44385 | -5.00116 | 34860 ft | 417 kts | 213° |
| 2026-05-08 05:41 | 44.39468 | -5.04414 | 34858 ft | 416 kts | 213° |
| 2026-05-08 05:41 | 44.34557 | -5.08710 | 34854 ft | 416 kts | 213° |
| 2026-05-08 05:42 | 44.29643 | -5.12991 | 34847 ft | 416 kts | 213° |
| 2026-05-08 05:42 | 44.24731 | -5.17252 | 34850 ft | 416 kts | 213° |
| 2026-05-08 05:43 | 44.19849 | -5.21480 | 34853 ft | 416 kts | 213° |
| 2026-05-08 05:43 | 44.14936 | -5.25728 | 34850 ft | 415 kts | 213° |
| 2026-05-08 05:44 | 44.10020 | -5.29967 | 34848 ft | 415 kts | 213° |
| 2026-05-08 05:44 | 44.05110 | -5.34202 | 34862 ft | 415 kts | 212° |
| 2026-05-08 05:45 | 44.00195 | -5.38427 | 34865 ft | 415 kts | 212° |
| 2026-05-08 05:45 | 43.96118 | -5.41932 | 34858 ft | 414 kts | 212° |
| 2026-05-08 05:46 | 43.91211 | -5.46143 | 34854 ft | 414 kts | 212° |
| 2026-05-08 05:46 | 43.86310 | -5.50334 | 34841 ft | 414 kts | 212° |
| 2026-05-08 05:47 | 43.81402 | -5.54520 | 34834 ft | 414 kts | 212° |
| 2026-05-08 05:47 | 43.76493 | -5.58709 | 34833 ft | 414 kts | 212° |
| 2026-05-08 05:48 | 43.71579 | -5.62888 | 34835 ft | 415 kts | 212° |
| 2026-05-08 05:48 | 43.66692 | -5.67032 | 34830 ft | 414 kts | 211° |
| 2026-05-08 05:49 | 43.61780 | -5.71190 | 34852 ft | 414 kts | 211° |
| 2026-05-08 05:49 | 43.56868 | -5.75341 | 34845 ft | 414 kts | 211° |
| 2026-05-08 05:50 | 43.51955 | -5.79483 | 34841 ft | 414 kts | 211° |
| 2026-05-08 05:50 | 43.47048 | -5.83619 | 34831 ft | 414 kts | 210° |
| 2026-05-08 05:51 | 43.42124 | -5.87760 | 34826 ft | 415 kts | 210° |
| 2026-05-08 05:51 | 43.37223 | -5.91868 | 34827 ft | 415 kts | 210° |
| 2026-05-08 05:52 | 43.32285 | -5.95999 | 34834 ft | 416 kts | 210° |
| 2026-05-08 05:52 | 43.27337 | -6.00137 | 34848 ft | 416 kts | 210° |
| 2026-05-08 05:53 | 43.22397 | -6.04260 | 34868 ft | 415 kts | 210° |
| 2026-05-08 05:53 | 43.17459 | -6.08368 | 34881 ft | 414 kts | 210° |
| 2026-05-08 05:54 | 43.12533 | -6.12460 | 34898 ft | 413 kts | 209° |
| 2026-05-08 05:54 | 43.07653 | -6.16506 | 34899 ft | 412 kts | 209° |
| 2026-05-08 05:55 | 43.02751 | -6.20569 | 34894 ft | 412 kts | 209° |
| 2026-05-08 05:55 | 42.97843 | -6.24624 | 34890 ft | 411 kts | 209° |
| 2026-05-08 05:56 | 42.92943 | -6.28663 | 34886 ft | 411 kts | 209° |
| 2026-05-08 05:56 | 42.88044 | -6.32693 | 34883 ft | 411 kts | 209° |
| 2026-05-08 05:57 | 42.83145 | -6.36719 | 34875 ft | 411 kts | 209° |
| 2026-05-08 05:57 | 42.78241 | -6.40746 | 34864 ft | 412 kts | 209° |
| 2026-05-08 05:58 | 42.73358 | -6.44736 | 34864 ft | 412 kts | 209° |
| 2026-05-08 05:58 | 42.68438 | -6.48755 | 34880 ft | 413 kts | 208° |
| 2026-05-08 05:59 | 42.63505 | -6.52780 | 34875 ft | 414 kts | 208° |
| 2026-05-08 05:59 | 42.58564 | -6.56799 | 34866 ft | 414 kts | 208° |
| 2026-05-08 06:00 | 42.53617 | -6.60815 | 34865 ft | 414 kts | 208° |
| 2026-05-08 06:00 | 42.48665 | -6.64833 | 34866 ft | 414 kts | 208° |
| 2026-05-08 06:01 | 42.43716 | -6.68833 | 34869 ft | 415 kts | 208° |
| 2026-05-08 06:01 | 42.38763 | -6.72842 | 34877 ft | 415 kts | 208° |
| 2026-05-08 06:02 | 42.33806 | -6.76843 | 34876 ft | 415 kts | 208° |
| 2026-05-08 06:02 | 42.28876 | -6.80803 | 34876 ft | 414 kts | 208° |
| 2026-05-08 06:03 | 42.23923 | -6.84780 | 34901 ft | 414 kts | 208° |
| 2026-05-08 06:03 | 42.18966 | -6.88762 | 34892 ft | 414 kts | 207° |
| 2026-05-08 06:04 | 42.14009 | -6.92732 | 34891 ft | 414 kts | 207° |
| 2026-05-08 06:04 | 42.09061 | -6.96681 | 34887 ft | 413 kts | 207° |
| 2026-05-08 06:05 | 42.04116 | -7.00618 | 34887 ft | 413 kts | 207° |
| 2026-05-08 06:05 | 41.99201 | -7.04531 | 34884 ft | 413 kts | 207° |
| 2026-05-08 06:06 | 41.94252 | -7.08469 | 34891 ft | 413 kts | 207° |
| 2026-05-08 06:06 | 41.89308 | -7.12385 | 34886 ft | 413 kts | 207° |
| 2026-05-08 06:07 | 41.84357 | -7.16307 | 34888 ft | 413 kts | 207° |
| 2026-05-08 06:07 | 41.79414 | -7.20218 | 34888 ft | 413 kts | 207° |
| 2026-05-08 06:08 | 41.74460 | -7.24119 | 34912 ft | 413 kts | 206° |
| 2026-05-08 06:08 | 41.69503 | -7.28019 | 34895 ft | 414 kts | 206° |
| 2026-05-08 06:09 | 41.64541 | -7.31925 | 34888 ft | 414 kts | 206° |
| 2026-05-08 06:09 | 41.59571 | -7.35831 | 34888 ft | 415 kts | 206° |
| 2026-05-08 06:10 | 41.54589 | -7.39738 | 34887 ft | 415 kts | 206° |
| 2026-05-08 06:10 | 41.49604 | -7.43639 | 34882 ft | 416 kts | 206° |
| 2026-05-08 06:11 | 41.44603 | -7.47539 | 34879 ft | 417 kts | 206° |
| 2026-05-08 06:11 | 41.39625 | -7.51416 | 34880 ft | 418 kts | 206° |
| 2026-05-08 06:12 | 41.34607 | -7.55328 | 34883 ft | 418 kts | 206° |
| 2026-05-08 06:12 | 41.29583 | -7.59235 | 34884 ft | 419 kts | 206° |
| 2026-05-08 06:13 | 41.24541 | -7.63148 | 34895 ft | 420 kts | 205° |
| 2026-05-08 06:13 | 41.19481 | -7.67055 | 34885 ft | 421 kts | 205° |
| 2026-05-08 06:14 | 41.14405 | -7.70974 | 34883 ft | 422 kts | 205° |
| 2026-05-08 06:14 | 41.09319 | -7.74895 | 34884 ft | 423 kts | 205° |
| 2026-05-08 06:15 | 41.04232 | -7.78813 | 34898 ft | 423 kts | 205° |
| 2026-05-08 06:15 | 40.99145 | -7.82727 | 34904 ft | 422 kts | 205° |
| 2026-05-08 06:16 | 40.94060 | -7.86623 | 34905 ft | 422 kts | 205° |
| 2026-05-08 06:16 | 40.89009 | -7.90478 | 34906 ft | 422 kts | 205° |
| 2026-05-08 06:17 | 40.81376 | -7.96314 | 35174 ft | 423 kts | 206° |
| 2026-05-08 06:17 | 40.78830 | -7.98259 | 35423 ft | 422 kts | 206° |
| 2026-05-08 06:17 | 40.76287 | -8.00200 | 35666 ft | 422 kts | 206° |
| 2026-05-08 06:18 | 40.73747 | -8.02136 | 35903 ft | 421 kts | 206° |
| 2026-05-08 06:18 | 40.71209 | -8.04066 | 36117 ft | 421 kts | 207° |
| 2026-05-08 06:18 | 40.68673 | -8.05989 | 36356 ft | 420 kts | 207° |
| 2026-05-08 06:18 | 40.66141 | -8.07910 | 36568 ft | 420 kts | 207° |
| 2026-05-08 06:19 | 40.63613 | -8.09828 | 36777 ft | 419 kts | 207° |
| 2026-05-08 06:19 | 40.61086 | -8.11745 | 36887 ft | 419 kts | 208° |
| 2026-05-08 06:19 | 40.56032 | -8.15564 | 36904 ft | 418 kts | 208° |
| 2026-05-08 06:20 | 40.50977 | -8.19377 | 36907 ft | 418 kts | 208° |
| 2026-05-08 06:20 | 40.45968 | -8.23162 | 36907 ft | 418 kts | 208° |
| 2026-05-08 06:21 | 40.40925 | -8.26968 | 36906 ft | 418 kts | 208° |
| 2026-05-08 06:21 | 40.35876 | -8.30759 | 36907 ft | 418 kts | 208° |
| 2026-05-08 06:22 | 40.30823 | -8.34540 | 36937 ft | 418 kts | 208° |
| 2026-05-08 06:22 | 40.25765 | -8.38335 | 36923 ft | 419 kts | 208° |
| 2026-05-08 06:23 | 40.20706 | -8.42121 | 36915 ft | 419 kts | 208° |
| 2026-05-08 06:23 | 40.15639 | -8.45902 | 36912 ft | 419 kts | 208° |
| 2026-05-08 06:24 | 40.10567 | -8.49675 | 36907 ft | 419 kts | 208° |
| 2026-05-08 06:24 | 40.05498 | -8.53440 | 36907 ft | 419 kts | 208° |
| 2026-05-08 06:25 | 40.00423 | -8.57211 | 36907 ft | 419 kts | 208° |
| 2026-05-08 06:25 | 39.95384 | -8.60946 | 36907 ft | 419 kts | 208° |
| 2026-05-08 06:26 | 39.90304 | -8.64702 | 36901 ft | 419 kts | 209° |
| 2026-05-08 06:26 | 39.85230 | -8.68446 | 36900 ft | 419 kts | 209° |
| 2026-05-08 06:27 | 39.80149 | -8.72193 | 36920 ft | 419 kts | 209° |
| 2026-05-08 06:27 | 39.75073 | -8.75936 | 36913 ft | 420 kts | 209° |
| 2026-05-08 06:28 | 39.69991 | -8.79674 | 36909 ft | 420 kts | 209° |
| 2026-05-08 06:28 | 39.64900 | -8.83406 | 36902 ft | 420 kts | 210° |
| 2026-05-08 06:29 | 39.59817 | -8.87130 | 36909 ft | 419 kts | 210° |
| 2026-05-08 06:29 | 39.54737 | -8.90846 | 36913 ft | 419 kts | 210° |
| 2026-05-08 06:30 | 39.49681 | -8.94536 | 36917 ft | 419 kts | 210° |
| 2026-05-08 06:30 | 39.44591 | -8.98242 | 36916 ft | 419 kts | 210° |
| 2026-05-08 06:31 | 39.39510 | -9.01940 | 36920 ft | 419 kts | 210° |
| 2026-05-08 06:31 | 39.34430 | -9.05628 | 36921 ft | 419 kts | 210° |
| 2026-05-08 06:32 | 39.29348 | -9.09306 | 36939 ft | 418 kts | 210° |
| 2026-05-08 06:32 | 39.24272 | -9.12978 | 36935 ft | 418 kts | 211° |
| 2026-05-08 06:33 | 39.19200 | -9.16638 | 36922 ft | 417 kts | 211° |
| 2026-05-08 06:33 | 39.14174 | -9.20266 | 36927 ft | 416 kts | 211° |
| 2026-05-08 06:34 | 39.09116 | -9.23915 | 36930 ft | 416 kts | 211° |
| 2026-05-08 06:34 | 39.04069 | -9.27540 | 36923 ft | 415 kts | 211° |
| 2026-05-08 06:35 | 38.99871 | -9.30550 | 36924 ft | 415 kts | 211° |
| 2026-05-08 06:35 | 38.94833 | -9.34170 | 36918 ft | 414 kts | 211° |
| 2026-05-08 06:36 | 38.89801 | -9.37777 | 36922 ft | 414 kts | 211° |
| 2026-05-08 06:36 | 38.84770 | -9.41364 | 36921 ft | 413 kts | 211° |
| 2026-05-08 06:37 | 38.79740 | -9.44943 | 36920 ft | 413 kts | 211° |
| 2026-05-08 06:37 | 38.74715 | -9.48516 | 36931 ft | 413 kts | 211° |
| 2026-05-08 06:38 | 38.69696 | -9.52090 | 36918 ft | 412 kts | 212° |
| 2026-05-08 06:38 | 38.64681 | -9.55654 | 36921 ft | 412 kts | 211° |
| 2026-05-08 06:39 | 38.59670 | -9.59204 | 36921 ft | 412 kts | 211° |
| 2026-05-08 06:39 | 38.54681 | -9.62734 | 36920 ft | 412 kts | 211° |
| 2026-05-08 06:40 | 38.49665 | -9.66279 | 36919 ft | 411 kts | 211° |
| 2026-05-08 06:40 | 38.44657 | -9.69811 | 36908 ft | 411 kts | 212° |
| 2026-05-08 06:41 | 38.39654 | -9.73336 | 36920 ft | 410 kts | 212° |
| 2026-05-08 06:41 | 38.34649 | -9.76845 | 36921 ft | 410 kts | 212° |
| 2026-05-08 06:42 | 38.29655 | -9.80351 | 36920 ft | 410 kts | 212° |
| 2026-05-08 06:42 | 38.24692 | -9.83835 | 36929 ft | 410 kts | 212° |
| 2026-05-08 06:43 | 38.19705 | -9.87320 | 36922 ft | 408 kts | 212° |
| 2026-05-08 06:43 | 38.14730 | -9.90787 | 36924 ft | 407 kts | 212° |
| 2026-05-08 06:44 | 38.09765 | -9.94249 | 36924 ft | 407 kts | 212° |
| 2026-05-08 06:44 | 38.04809 | -9.97707 | 36925 ft | 406 kts | 212° |
| 2026-05-08 06:45 | 37.99855 | -10.01171 | 36921 ft | 406 kts | 212° |
| 2026-05-08 06:45 | 37.94951 | -10.04732 | 36921 ft | 406 kts | 213° |
| 2026-05-08 06:46 | 37.90070 | -10.08324 | 36918 ft | 405 kts | 213° |
| 2026-05-08 06:46 | 37.85186 | -10.11893 | 36917 ft | 405 kts | 213° |
| 2026-05-08 06:47 | 37.80326 | -10.15418 | 36913 ft | 405 kts | 213° |
| 2026-05-08 06:47 | 37.75436 | -10.18953 | 36911 ft | 405 kts | 213° |
| 2026-05-08 06:48 | 37.70548 | -10.22480 | 36917 ft | 404 kts | 213° |
| 2026-05-08 06:48 | 37.65668 | -10.26001 | 36921 ft | 404 kts | 213° |
| 2026-05-08 06:49 | 37.60794 | -10.29516 | 36917 ft | 403 kts | 213° |
| 2026-05-08 06:49 | 37.55925 | -10.33024 | 36916 ft | 403 kts | 213° |
| 2026-05-08 06:50 | 37.51057 | -10.36528 | 36917 ft | 403 kts | 213° |
| 2026-05-08 06:50 | 37.46221 | -10.39996 | 36901 ft | 402 kts | 213° |
| 2026-05-08 06:51 | 37.41357 | -10.43469 | 36908 ft | 402 kts | 213° |
| 2026-05-08 06:51 | 37.36504 | -10.46942 | 36912 ft | 401 kts | 213° |
| 2026-05-08 06:52 | 37.31659 | -10.50412 | 36915 ft | 401 kts | 213° |
| 2026-05-08 06:52 | 37.26816 | -10.53874 | 36913 ft | 401 kts | 213° |
| 2026-05-08 06:53 | 37.21965 | -10.57328 | 36898 ft | 400 kts | 213° |
| 2026-05-08 06:53 | 37.17123 | -10.60768 | 36911 ft | 399 kts | 213° |
| 2026-05-08 06:54 | 37.12292 | -10.64202 | 36911 ft | 398 kts | 213° |
| 2026-05-08 06:54 | 37.07496 | -10.67610 | 36910 ft | 398 kts | 213° |
| 2026-05-08 06:55 | 37.02678 | -10.71017 | 36911 ft | 398 kts | 213° |
| 2026-05-08 06:55 | 36.97862 | -10.74418 | 36877 ft | 397 kts | 213° |
| 2026-05-08 06:56 | 36.93057 | -10.77808 | 36904 ft | 396 kts | 214° |
| 2026-05-08 06:56 | 36.88265 | -10.81188 | 36901 ft | 395 kts | 214° |
| 2026-05-08 06:57 | 36.83475 | -10.84561 | 36906 ft | 395 kts | 214° |
| 2026-05-08 06:57 | 36.78726 | -10.87905 | 36907 ft | 394 kts | 214° |
| 2026-05-08 06:58 | 36.73942 | -10.91259 | 36899 ft | 394 kts | 213° |
| 2026-05-08 06:58 | 36.69164 | -10.94615 | 36894 ft | 394 kts | 214° |
| 2026-05-08 06:59 | 36.64392 | -10.97963 | 36903 ft | 393 kts | 214° |
| 2026-05-08 06:59 | 36.59616 | -11.01286 | 36905 ft | 393 kts | 214° |
| 2026-05-08 07:00 | 36.54850 | -11.04602 | 36906 ft | 392 kts | 214° |
| 2026-05-08 07:00 | 36.50094 | -11.07920 | 36905 ft | 392 kts | 214° |
| 2026-05-08 07:01 | 36.45345 | -11.11231 | 36882 ft | 391 kts | 214° |
| 2026-05-08 07:01 | 36.40595 | -11.14525 | 36889 ft | 390 kts | 214° |